createdAt,value
2018-12-26T00:01:19.129Z,8.68
2018-12-26T00:03:49.656Z,10.15
2018-12-26T00:06:20.057Z,9.93
2018-12-26T00:11:54.160Z,10.50
2018-12-26T00:20:07.229Z,12.28
2018-12-26T00:22:37.539Z,9.48
2018-12-26T00:25:07.829Z,9.18
2018-12-26T00:27:38.263Z,9.40
2018-12-26T00:33:06.243Z,8.73
2018-12-26T00:38:26.254Z,9.00
2018-12-26T00:40:56.590Z,8.68
2018-12-26T00:43:26.937Z,8.45
2018-12-26T00:45:57.303Z,8.20
2018-12-26T00:48:48.043Z,6.47
2018-12-26T00:51:37.530Z,6.97
2018-12-26T00:57:06.195Z,7.05
2018-12-26T00:59:36.565Z,6.30
2018-12-26T01:02:25.778Z,6.85
2018-12-26T01:04:56.125Z,6.37
2018-12-26T01:07:26.444Z,6.17
2018-12-26T01:09:56.831Z,6.62
2018-12-26T01:12:27.108Z,7.10
2018-12-26T01:14:57.434Z,6.22
2018-12-26T01:23:06.761Z,6.95
2018-12-26T01:28:52.321Z,6.60
2018-12-26T01:31:22.610Z,6.70
2018-12-26T01:33:52.857Z,7.35
2018-12-26T01:36:23.268Z,6.75
2018-12-26T01:38:53.581Z,6.60
2018-12-26T01:44:14.779Z,6.25
2018-12-26T01:46:45.071Z,5.45
2018-12-26T01:49:15.531Z,6.85
2018-12-26T01:52:24.772Z,6.42
2018-12-26T01:55:13.801Z,6.53
2018-12-26T01:57:44.155Z,6.03
2018-12-26T02:00:14.322Z,6.37
2018-12-26T02:02:44.425Z,5.78
2018-12-26T02:05:14.800Z,5.85
2018-12-26T02:07:45.122Z,7.10
2018-12-26T02:10:15.446Z,6.47
2018-12-26T02:12:45.811Z,6.50
2018-12-26T02:15:16.111Z,6.80
2018-12-26T02:17:46.405Z,7.03
2018-12-26T02:20:16.716Z,6.25
2018-12-26T02:22:46.995Z,5.53
2018-12-26T02:25:36.551Z,6.10
2018-12-26T02:28:06.870Z,5.75
2018-12-26T02:33:43.829Z,5.65
2018-12-26T02:36:25.408Z,6.72
2018-12-26T02:38:55.843Z,6.45
2018-12-26T02:41:26.190Z,6.58
2018-12-26T02:43:56.452Z,6.05
2018-12-26T02:46:26.780Z,6.22
2018-12-26T02:48:57.091Z,6.67
2018-12-26T02:51:46.162Z,6.10
2018-12-26T02:54:17.017Z,6.03
2018-12-26T02:56:49.084Z,6.62
2018-12-26T02:59:19.792Z,6.10
2018-12-26T03:02:10.329Z,6.15
2018-12-26T03:04:40.698Z,6.45
2018-12-26T03:07:11.145Z,5.90
2018-12-26T03:09:41.432Z,7.08
2018-12-26T03:15:06.707Z,7.08
2018-12-26T03:17:57.091Z,6.40
2018-12-26T03:20:47.627Z,6.80
2018-12-26T03:31:53.967Z,7.45
2018-12-26T03:40:24.850Z,6.60
2018-12-26T03:46:13.496Z,6.67
2018-12-26T03:49:03.848Z,7.22
2018-12-26T04:03:35.966Z,6.87
2018-12-26T04:06:06.231Z,6.95
2018-12-26T04:17:41.593Z,5.85
2018-12-26T04:20:50.628Z,7.00
2018-12-26T04:23:59.800Z,6.80
2018-12-26T04:29:21.240Z,6.65
2018-12-26T04:35:03.289Z,6.72
2018-12-26T04:44:01.763Z,6.28
2018-12-26T04:52:16.573Z,6.22
2018-12-26T04:54:46.919Z,5.35
2018-12-26T05:11:43.753Z,5.15
2018-12-26T05:34:51.998Z,7.58
2018-12-26T05:45:55.442Z,7.05
2018-12-26T05:51:44.447Z,6.78
2018-12-26T05:54:14.745Z,6.35
2018-12-26T05:56:45.030Z,7.67
2018-12-26T06:02:09.895Z,8.43
2018-12-26T06:04:40.278Z,7.65
2018-12-26T06:07:10.470Z,10.05
2018-12-26T06:09:59.596Z,9.95
2018-12-26T06:12:30.022Z,10.08
2018-12-26T06:15:19.132Z,10.40
2018-12-26T06:17:49.734Z,9.48
2018-12-26T06:26:24.163Z,9.90
2018-12-26T06:28:54.506Z,8.30
2018-12-26T06:34:37.400Z,8.20
2018-12-26T06:46:14.260Z,8.88
2018-12-26T07:02:53.920Z,8.28
2018-12-26T07:08:15.308Z,8.45
2018-12-26T07:11:23.065Z,7.85
2018-12-26T07:13:53.579Z,8.95
2018-12-26T07:16:23.892Z,9.23
2018-12-26T07:24:45.790Z,8.55
2018-12-26T07:32:49.166Z,9.08
2018-12-26T07:38:40.130Z,9.75
2018-12-26T07:41:21.102Z,9.98
2018-12-26T07:43:51.649Z,9.93
2018-12-26T07:46:21.906Z,9.80
2018-12-26T07:48:52.168Z,10.43
2018-12-26T07:54:20.660Z,10.08
2018-12-26T07:59:59.939Z,9.95
2018-12-26T08:03:09.064Z,10.00
2018-12-26T08:08:32.760Z,8.60
2018-12-26T08:14:02.414Z,8.88
2018-12-26T08:16:32.820Z,8.68
2018-12-26T08:25:09.587Z,8.15
2018-12-26T08:27:50.469Z,9.25
2018-12-26T08:30:21.124Z,8.95
2018-12-26T08:36:06.105Z,9.28
2018-12-26T08:41:33.649Z,8.25
2018-12-26T08:49:50.392Z,8.33
2018-12-26T08:52:40.949Z,7.55
2018-12-26T08:55:11.348Z,7.10
2018-12-26T08:57:41.695Z,8.73
2018-12-26T09:00:12.003Z,7.72
2018-12-26T09:02:42.399Z,9.53
2018-12-26T09:05:12.712Z,7.85
2018-12-26T09:07:43.038Z,9.00
2018-12-26T09:10:13.349Z,8.78
2018-12-26T09:12:43.536Z,8.95
2018-12-26T09:21:21.512Z,7.10
2018-12-26T09:23:51.881Z,8.30
2018-12-26T09:26:22.227Z,7.90
2018-12-26T09:28:52.604Z,7.83
2018-12-26T09:31:23.084Z,7.47
2018-12-26T09:33:53.571Z,8.20
2018-12-26T09:36:23.901Z,8.30
2018-12-26T09:41:43.599Z,8.68
2018-12-26T09:44:13.886Z,8.10
2018-12-26T09:46:44.169Z,8.58
2018-12-26T09:49:14.598Z,8.13
2018-12-26T09:51:44.848Z,8.83
2018-12-26T09:54:15.136Z,8.30
2018-12-26T09:57:04.325Z,8.93
2018-12-26T10:05:11.099Z,8.10
2018-12-26T10:07:41.586Z,7.37
2018-12-26T10:10:30.723Z,8.10
2018-12-26T10:16:02.958Z,8.03
2018-12-26T10:24:21.091Z,7.45
2018-12-26T10:26:51.334Z,7.83
2018-12-26T10:29:21.718Z,8.90
2018-12-26T10:31:52.052Z,8.40
2018-12-26T10:34:22.539Z,8.33
2018-12-26T10:37:11.642Z,8.20
2018-12-26T10:39:42.009Z,7.65
2018-12-26T10:42:12.426Z,7.40
2018-12-26T10:47:38.467Z,7.92
2018-12-26T10:50:11.105Z,8.40
2018-12-26T10:52:41.436Z,7.53
2018-12-26T10:58:08.455Z,8.90
2018-12-26T11:00:38.806Z,8.13
2018-12-26T11:03:48.162Z,9.13
2018-12-26T11:06:18.642Z,8.20
2018-12-26T11:08:48.984Z,8.08
2018-12-26T11:11:19.400Z,7.95
2018-12-26T11:13:50.136Z,8.23
2018-12-26T11:16:20.866Z,8.95
2018-12-26T11:19:11.336Z,8.40
2018-12-26T11:21:43.351Z,8.00
2018-12-26T11:24:13.617Z,8.58
2018-12-26T11:26:43.958Z,8.75
2018-12-26T11:29:18.494Z,7.35
2018-12-26T11:31:46.526Z,7.65
2018-12-26T11:34:16.863Z,6.87
2018-12-26T11:36:47.095Z,7.30
2018-12-26T11:39:36.277Z,6.65
2018-12-26T11:47:54.003Z,6.10
2018-12-26T11:53:40.059Z,6.65
2018-12-26T11:56:10.444Z,9.20
2018-12-26T11:59:01.092Z,9.63
2018-12-26T12:01:31.497Z,9.50
2018-12-26T12:04:01.811Z,9.68
2018-12-26T12:06:32.268Z,8.73
2018-12-26T12:09:02.587Z,8.43
2018-12-26T12:11:53.218Z,7.90
2018-12-26T12:14:23.885Z,8.08
2018-12-26T12:17:13.008Z,8.05
2018-12-26T12:22:35.635Z,8.93
2018-12-26T12:25:05.971Z,7.90
2018-12-26T12:27:36.302Z,8.40
2018-12-26T12:30:07.526Z,7.83
2018-12-26T12:32:37.760Z,7.50
2018-12-26T12:35:08.515Z,8.80
2018-12-26T12:37:57.652Z,7.78
2018-12-26T12:43:15.366Z,6.72
2018-12-26T12:49:00.507Z,7.30
2018-12-26T12:51:31.184Z,8.80
2018-12-26T12:54:01.540Z,8.15
2018-12-26T12:56:50.651Z,7.42
2018-12-26T12:59:32.174Z,6.67
2018-12-26T13:02:02.536Z,5.70
2018-12-26T13:04:51.650Z,6.70
2018-12-26T13:07:22.000Z,6.95
2018-12-26T13:09:52.293Z,6.95
2018-12-26T13:12:22.554Z,6.28
2018-12-26T13:14:52.857Z,8.05
2018-12-26T13:17:23.198Z,6.77
2018-12-26T13:19:53.520Z,7.55
2018-12-26T13:22:23.840Z,7.45
2018-12-26T13:34:07.315Z,5.70
2018-12-26T13:36:37.723Z,6.17
2018-12-26T13:39:09.099Z,6.17
2018-12-26T13:41:51.601Z,6.00
2018-12-26T13:44:22.271Z,6.10
2018-12-26T13:50:17.064Z,6.70
2018-12-26T13:58:48.565Z,6.70
2018-12-26T14:01:18.893Z,6.92
2018-12-26T14:03:49.029Z,6.70
2018-12-26T14:06:19.404Z,7.30
2018-12-26T14:11:42.890Z,8.43
2018-12-26T14:14:13.162Z,7.80
2018-12-26T14:16:43.424Z,7.92
2018-12-26T14:19:13.834Z,7.37
2018-12-26T14:21:44.128Z,7.20
2018-12-26T14:24:34.630Z,8.80
2018-12-26T14:27:29.349Z,7.53
2018-12-26T14:29:55.901Z,7.58
2018-12-26T14:32:26.179Z,6.95
2018-12-26T14:34:56.648Z,8.58
2018-12-26T14:37:27.030Z,7.55
2018-12-26T14:40:16.219Z,7.90
2018-12-26T14:45:22.784Z,9.30
2018-12-26T14:47:53.200Z,9.55
2018-12-26T14:50:42.369Z,11.63
2018-12-26T14:53:12.900Z,14.70
2018-12-26T14:55:43.597Z,15.13
2018-12-26T14:58:32.792Z,15.05
2018-12-26T15:01:03.063Z,14.07
2018-12-26T15:06:45.763Z,12.03
2018-12-26T15:09:16.072Z,11.43
2018-12-26T15:11:46.557Z,11.10
2018-12-26T15:14:16.884Z,11.05
2018-12-26T15:17:06.125Z,9.68
2018-12-26T15:19:36.573Z,8.90
2018-12-26T15:22:06.884Z,11.00
2018-12-26T15:24:37.186Z,10.40
2018-12-26T15:27:08.045Z,11.22
2018-12-26T15:29:38.299Z,14.68
2018-12-26T15:32:08.630Z,14.85
2018-12-26T15:34:39.749Z,15.38
2018-12-26T15:37:10.074Z,14.55
2018-12-26T15:39:40.481Z,15.48
2018-12-26T15:42:10.787Z,15.45
2018-12-26T15:44:41.118Z,16.27
2018-12-26T15:47:11.423Z,16.52
2018-12-26T15:49:41.755Z,17.40
2018-12-26T15:52:12.082Z,15.88
2018-12-26T15:55:01.287Z,16.75
2018-12-26T16:03:54.340Z,13.55
2018-12-26T16:06:35.793Z,11.73
2018-12-26T16:09:26.234Z,12.13
2018-12-26T16:11:56.956Z,12.00
2018-12-26T16:14:27.218Z,11.30
2018-12-26T16:16:57.608Z,12.68
2018-12-26T16:19:27.929Z,13.18
2018-12-26T16:21:58.221Z,11.73
2018-12-26T16:24:28.533Z,11.22
2018-12-26T16:26:58.840Z,12.28
2018-12-26T16:29:29.181Z,11.20
2018-12-26T16:31:59.536Z,11.22
2018-12-26T16:34:30.277Z,10.72
2018-12-26T16:39:55.509Z,11.50
2018-12-26T16:42:25.793Z,11.83
2018-12-26T16:44:56.115Z,11.08
2018-12-26T16:47:26.697Z,12.25
2018-12-26T16:49:57.111Z,9.65
2018-12-26T16:52:27.383Z,10.28
2018-12-26T16:54:57.781Z,11.83
2018-12-26T17:00:22.071Z,10.10
2018-12-26T17:02:52.339Z,11.50
2018-12-26T17:05:22.697Z,11.45
2018-12-26T17:07:53.173Z,11.10
2018-12-26T17:10:24.035Z,11.53
2018-12-26T17:12:54.744Z,11.65
2018-12-26T17:15:25.166Z,11.30
2018-12-26T17:17:55.463Z,11.65
2018-12-26T17:20:44.641Z,10.78
2018-12-26T17:23:14.975Z,8.83
2018-12-26T17:26:04.725Z,10.53
2018-12-26T17:28:34.990Z,9.00
2018-12-26T17:31:05.588Z,9.00
2018-12-26T17:33:36.016Z,10.68
2018-12-26T17:36:06.270Z,9.93
2018-12-26T17:38:36.971Z,11.20
2018-12-26T17:41:07.326Z,10.55
2018-12-26T17:43:56.624Z,11.05
2018-12-26T17:46:27.041Z,12.45
2018-12-26T17:48:57.437Z,11.33
2018-12-26T17:54:38.195Z,10.98
2018-12-26T17:57:19.345Z,11.43
2018-12-26T18:00:27.289Z,10.93
2018-12-26T18:02:57.778Z,11.22
2018-12-26T18:05:28.068Z,11.70
2018-12-26T18:08:17.171Z,12.30
2018-12-26T18:10:47.513Z,12.45
2018-12-26T18:13:17.792Z,10.90
2018-12-26T18:15:48.150Z,9.50
2018-12-26T18:18:18.434Z,9.23
2018-12-26T18:21:07.652Z,9.80
2018-12-26T18:23:38.105Z,10.20
2018-12-26T18:26:08.441Z,9.45
2018-12-26T18:28:38.756Z,9.75
2018-12-26T18:33:59.307Z,9.90
2018-12-26T18:36:29.531Z,8.78
2018-12-26T18:38:59.962Z,10.20
2018-12-26T18:41:30.402Z,12.45
2018-12-26T18:44:00.855Z,10.30
2018-12-26T18:46:31.117Z,11.80
2018-12-26T18:49:01.433Z,11.28
2018-12-26T18:51:31.651Z,11.75
2018-12-26T18:54:01.950Z,10.68
2018-12-26T18:56:32.384Z,10.32
2018-12-26T19:05:00.401Z,9.90
2018-12-26T19:07:49.655Z,10.93
2018-12-26T19:10:19.992Z,10.93
2018-12-26T19:12:50.254Z,10.05
2018-12-26T19:15:20.564Z,10.03
2018-12-26T19:17:51.028Z,10.80
2018-12-26T19:20:40.262Z,11.20
2018-12-26T19:23:10.574Z,10.13
2018-12-26T19:25:40.862Z,10.60
2018-12-26T19:28:11.261Z,13.93
2018-12-26T19:30:41.672Z,13.93
2018-12-26T19:33:30.729Z,13.72
2018-12-26T19:36:01.125Z,15.43
2018-12-26T19:38:31.484Z,14.75
2018-12-26T19:41:21.048Z,15.18
2018-12-26T19:43:51.329Z,12.25
2018-12-26T19:46:32.646Z,13.03
2018-12-26T19:51:51.206Z,11.25
2018-12-26T19:54:21.496Z,9.13
2018-12-26T19:56:51.798Z,9.38
2018-12-26T19:59:22.195Z,10.50
2018-12-26T20:01:52.856Z,9.98
2018-12-26T20:05:01.955Z,12.78
2018-12-26T20:07:33.033Z,11.25
2018-12-26T20:25:29.596Z,15.13
2018-12-26T20:27:59.953Z,14.85
2018-12-26T20:30:30.374Z,15.13
2018-12-26T20:33:00.753Z,14.20
2018-12-26T20:35:49.760Z,15.35
2018-12-26T20:38:20.277Z,13.72
2018-12-26T20:40:51.054Z,13.68
2018-12-26T20:43:21.437Z,13.10
2018-12-26T20:45:51.824Z,12.60
2018-12-26T20:48:33.405Z,11.35
2018-12-26T20:51:23.899Z,11.65
2018-12-26T20:53:54.750Z,11.03
2018-12-26T20:56:25.076Z,11.18
2018-12-26T20:59:14.228Z,9.88
2018-12-26T21:01:44.609Z,10.78
2018-12-26T21:04:14.966Z,10.43
2018-12-26T21:06:45.360Z,9.08
2018-12-26T21:09:16.144Z,9.93
2018-12-26T21:14:35.727Z,11.18
2018-12-26T21:17:06.096Z,10.05
2018-12-26T21:19:36.567Z,10.08
2018-12-26T21:22:06.937Z,10.50
2018-12-26T21:27:19.289Z,10.38
2018-12-26T21:29:49.672Z,9.70
2018-12-26T21:32:39.068Z,10.15
2018-12-26T21:37:58.619Z,9.73
2018-12-26T21:40:28.927Z,9.88
2018-12-26T21:49:08.102Z,8.30
2018-12-26T21:51:38.460Z,10.32
2018-12-26T21:54:08.728Z,8.78
2018-12-26T21:56:39.199Z,9.20
2018-12-26T21:59:09.606Z,10.18
2018-12-26T22:01:39.864Z,8.85
2018-12-26T22:04:10.172Z,9.58
2018-12-26T22:06:40.467Z,8.45
2018-12-26T22:09:29.733Z,9.45
2018-12-26T22:12:00.135Z,8.90
2018-12-26T22:14:30.454Z,10.00
2018-12-26T22:17:00.824Z,8.48
2018-12-26T22:22:20.662Z,8.53
2018-12-26T22:24:58.108Z,8.95
2018-12-26T22:27:28.455Z,9.15
2018-12-26T22:30:17.795Z,9.15
2018-12-26T22:33:26.987Z,9.18
2018-12-26T22:39:24.556Z,9.30
2018-12-26T22:42:06.042Z,9.25
2018-12-26T22:44:36.590Z,9.35
2018-12-26T22:47:25.642Z,8.80
2018-12-26T22:49:56.161Z,8.28
2018-12-26T22:52:26.419Z,8.70
2018-12-26T22:55:15.553Z,9.90
2018-12-26T22:57:45.889Z,9.73
2018-12-26T23:02:54.351Z,10.28
2018-12-26T23:16:54.122Z,10.55
2018-12-26T23:19:24.401Z,9.80
2018-12-26T23:21:54.686Z,10.28
2018-12-26T23:24:25.092Z,10.80
2018-12-26T23:27:14.388Z,10.40
2018-12-26T23:32:20.714Z,9.83
2018-12-26T23:34:51.542Z,11.48
2018-12-26T23:37:40.572Z,10.40
2018-12-26T23:40:10.956Z,10.93
2018-12-26T23:43:00.010Z,10.72
2018-12-26T23:45:30.366Z,10.75
2018-12-26T23:48:00.797Z,10.90
2018-12-26T23:50:31.251Z,10.32
2018-12-26T23:53:01.602Z,9.33
2018-12-26T23:55:31.879Z,11.33
2018-12-26T23:58:02.281Z,10.50
